Time;durP1;ratioP1;P1;durP2;ratioP2;P2;SDS_P1;SDS_P2;PMS_P1;PMS_P2;Temp;Humidity;BMP_temperature;BMP_pressure;BME280_temperature;BME280_humidity;BME280_pressure;Samples;Min_cycle;Max_cycle;Signal;HPM_P1;HPM_P2
2023/03/10 00:00:04;;;;;;;0.10;0.10;;;7.20;99.90;;;;;;5100211;28;20024;-76
2023/03/10 00:02:33;;;;;;;0.00;0.00;;;8.10;99.90;;;;;;5082266;28;20357;-76
2023/03/10 00:04:59;;;;;;;0.10;0.10;;;;;;;;;;5101216;28;20297;-76
2023/03/10 00:07:25;;;;;;;0.10;0.10;;;8.20;99.90;;;;;;5106061;28;20145;-76
2023/03/10 00:09:51;;;;;;;0.10;0.10;;;7.90;99.90;;;;;;5106346;28;20113;-75
2023/03/10 00:12:17;;;;;;;0.10;0.10;;;5.60;99.90;;;;;;5105697;28;20053;-76
2023/03/10 00:14:43;;;;;;;0.10;0.10;;;;;;;;;;5108693;28;20024;-75
2023/03/10 00:17:09;;;;;;;10.52;10.00;;;8.10;99.90;;;;;;5106420;28;20678;-75
2023/03/10 00:19:35;;;;;;;0.00;0.00;;;8.10;99.90;;;;;;5105429;28;20091;-75
2023/03/10 00:22:02;;;;;;;0.05;0.05;;;8.10;99.90;;;;;;5105228;28;20166;-75
2023/03/10 00:24:35;;;;;;;0.08;0.08;;;7.80;99.90;;;;;;5108656;28;20453;-76
2023/03/10 00:27:00;;;;;;;0.10;0.10;;;8.00;99.90;;;;;;5104771;28;20031;-76
2023/03/10 00:29:26;;;;;;;0.10;0.10;;;8.10;99.90;;;;;;5106835;28;20024;-76
2023/03/10 00:31:53;;;;;;;0.10;0.10;;;8.10;99.90;;;;;;5104187;28;20016;-76
2023/03/10 00:34:19;;;;;;;0.10;0.10;;;;;;;;;;5102421;28;20028;-77
2023/03/10 00:36:45;;;;;;;0.00;0.00;;;8.10;99.90;;;;;;5108614;28;20022;-76
2023/03/10 00:39:11;;;;;;;0.10;0.10;;;8.10;99.90;;;;;;5105286;28;20031;-76
2023/03/10 00:41:40;;;;;;;0.10;0.10;;;8.00;99.90;;;;;;5105424;28;20081;-75
2023/03/10 00:44:08;;;;;;;0.00;0.00;;;8.00;99.90;;;;;;5106935;28;20054;-76
2023/03/10 00:46:42;;;;;;;0.03;0.03;;;8.00;99.90;;;;;;5104717;28;20048;-75
2023/03/10 00:49:09;;;;;;;0.10;0.10;;;8.00;99.90;;;;;;5105675;28;20519;-75
2023/03/10 00:51:35;;;;;;;0.10;0.10;;;8.00;99.90;;;;;;5108444;28;20529;-75
2023/03/10 00:54:02;;;;;;;0.10;0.10;;;8.10;99.90;;;;;;5107567;28;20509;-76
2023/03/10 00:56:29;;;;;;;0.08;0.08;;;8.70;99.90;;;;;;5107929;28;20212;-76
2023/03/10 00:58:58;;;;;;;0.00;0.00;;;8.10;99.90;;;;;;5108743;28;20030;-76
2023/03/10 01:01:29;;;;;;;0.00;0.00;;;8.00;99.90;;;;;;5106567;28;20023;-76
2023/03/10 01:03:57;;;;;;;0.10;0.10;;;8.00;99.90;;;;;;5110075;28;20103;-76
2023/03/10 01:06:23;;;;;;;0.00;0.00;;;8.00;99.90;;;;;;5113764;28;20089;-77
2023/03/10 01:08:49;;;;;;;0.10;0.10;;;8.00;99.90;;;;;;5113881;28;20654;-77
2023/03/10 01:11:17;;;;;;;0.00;0.00;;;8.00;99.90;;;;;;5110199;28;20020;-76
2023/03/10 01:13:44;;;;;;;0.00;0.00;;;8.00;99.90;;;;;;5108278;28;20012;-76
2023/03/10 01:16:10;;;;;;;0.10;0.10;;;8.00;99.90;;;;;;5112647;28;20197;-76
2023/03/10 01:18:37;;;;;;;0.00;0.00;;;8.00;99.90;;;;;;5113236;28;20024;-76
2023/03/10 01:21:04;;;;;;;0.10;0.10;;;8.00;99.90;;;;;;5111103;28;20478;-76
2023/03/10 01:23:30;;;;;;;0.10;0.10;;;;;;;;;;5109561;28;20022;-76
2023/03/10 01:25:56;;;;;;;0.00;0.00;;;7.90;99.90;;;;;;5107746;28;20028;-75
2023/03/10 01:28:23;;;;;;;0.10;0.10;;;;;;;;;;5104242;28;20034;-76
2023/03/10 01:30:49;;;;;;;0.10;0.10;;;7.80;99.90;;;;;;5102730;28;20055;-77
2023/03/10 01:33:16;;;;;;;0.00;0.00;;;7.80;99.90;;;;;;5103192;28;20022;-76
2023/03/10 01:35:42;;;;;;;0.10;0.10;;;7.80;99.90;;;;;;5103560;28;20357;-76
2023/03/10 01:38:09;;;;;;;0.10;0.10;;;7.80;99.90;;;;;;5102346;28;20024;-76
2023/03/10 01:40:37;;;;;;;0.00;0.00;;;7.80;99.90;;;;;;5102457;28;20051;-76
2023/03/10 01:43:27;;;;;;;0.10;0.10;;;7.80;99.90;;;;;;5102692;28;20101;-76
2023/03/10 01:45:53;;;;;;;0.00;0.00;;;7.70;99.90;;;;;;5102452;28;20255;-76
2023/03/10 01:48:20;;;;;;;0.00;0.00;;;7.70;99.90;;;;;;5102370;28;20271;-76
2023/03/10 01:50:50;;;;;;;0.00;0.00;;;7.70;99.90;;;;;;5102081;28;20076;-75
2023/03/10 01:53:18;;;;;;;0.08;0.08;;;7.70;99.90;;;;;;5101869;28;20209;-76
2023/03/10 01:55:51;;;;;;;0.10;0.10;;;7.70;99.90;;;;;;5102185;28;20016;-75
2023/03/10 01:58:21;;;;;;;0.00;0.00;;;7.70;99.90;;;;;;5102089;28;20157;-76
2023/03/10 02:00:47;;;;;;;0.00;0.00;;;7.70;99.90;;;;;;5101304;28;20024;-75
2023/03/10 02:03:23;;;;;;;0.00;0.00;;;7.70;99.90;;;;;;5101591;28;20031;-75
2023/03/10 02:06:09;;;;;;;0.10;0.10;;;7.60;99.90;;;;;;5083339;28;20051;-76
2023/03/10 02:08:42;;;;;;;0.10;0.10;;;7.60;99.90;;;;;;5102181;28;20026;-75
2023/03/10 02:11:08;;;;;;;0.00;0.00;;;7.60;99.90;;;;;;5102848;28;20034;-75
2023/03/10 02:13:34;;;;;;;0.05;0.05;;;7.60;99.90;;;;;;5102387;28;20253;-75
2023/03/10 02:16:00;;;;;;;0.05;0.05;;;7.60;99.90;;;;;;5102203;28;20030;-75
2023/03/10 02:18:27;;;;;;;0.47;0.47;;;7.60;99.90;;;;;;5101713;28;20426;-76
2023/03/10 02:21:20;;;;;;;0.10;0.10;;;7.70;99.90;;;;;;5103925;28;20019;-75
2023/03/10 02:24:07;;;;;;;0.10;0.10;;;7.70;99.90;;;;;;5106045;28;20031;-75
2023/03/10 02:26:59;;;;;;;0.00;0.00;;;7.60;99.90;;;;;;5089158;28;20543;-77
2023/03/10 02:29:50;;;;;;;2.92;2.83;;;7.50;99.90;;;;;;5103837;28;20103;-75
2023/03/10 02:32:17;;;;;;;0.00;0.00;;;;;;;;;;5104925;28;20494;-75
2023/03/10 02:34:43;;;;;;;0.00;0.00;;;;;;;;;;5105216;28;20061;-76
2023/03/10 02:37:22;;;;;;;0.10;0.10;;;7.50;99.90;;;;;;5106915;28;20248;-76
2023/03/10 02:39:47;;;;;;;0.00;0.00;;;6.20;99.90;;;;;;5108573;28;20062;-75
2023/03/10 02:42:14;;;;;;;0.10;0.10;;;7.50;99.90;;;;;;5109024;28;20024;-76
2023/03/10 02:44:39;;;;;;;0.10;0.10;;;7.50;99.90;;;;;;5107947;28;20074;-75
2023/03/10 02:47:06;;;;;;;0.03;0.03;;;7.50;99.90;;;;;;5105663;28;20023;-76
2023/03/10 02:49:34;;;;;;;0.00;0.00;;;7.40;99.90;;;;;;5100178;28;20032;-75
2023/03/10 02:52:05;;;;;;;7.57;7.22;;;7.50;99.90;;;;;;5101818;28;20311;-76
2023/03/10 02:54:31;;;;;;;0.10;0.10;;;7.40;99.90;;;;;;5101703;28;20334;-76
2023/03/10 02:56:57;;;;;;;0.00;0.00;;;7.50;99.90;;;;;;5101195;28;20024;-76
2023/03/10 02:59:23;;;;;;;0.08;0.08;;;7.50;99.90;;;;;;5101409;28;20027;-75
2023/03/10 03:01:49;;;;;;;0.10;0.10;;;7.50;99.90;;;;;;5101006;28;20020;-75
2023/03/10 03:04:14;;;;;;;0.10;0.10;;;7.50;99.90;;;;;;5100907;28;20383;-76
2023/03/10 03:06:40;;;;;;;0.00;0.00;;;7.40;99.90;;;;;;5098604;28;20088;-75
2023/03/10 03:09:06;;;;;;;0.00;0.00;;;7.40;99.90;;;;;;5101667;28;20289;-76
2023/03/10 03:11:32;;;;;;;0.00;0.00;;;7.00;99.90;;;;;;5101116;28;20035;-76
2023/03/10 03:13:57;;;;;;;0.63;0.63;;;7.20;99.90;;;;;;5102022;28;20324;-75
2023/03/10 03:16:23;;;;;;;0.00;0.00;;;7.20;99.90;;;;;;5101982;28;20039;-75
2023/03/10 03:18:49;;;;;;;0.00;0.00;;;7.20;99.90;;;;;;5102437;28;20486;-76
2023/03/10 03:21:16;;;;;;;0.00;0.00;;;4.50;99.90;;;;;;5101246;28;20034;-75
2023/03/10 03:23:43;;;;;;;0.00;0.00;;;7.20;99.90;;;;;;5101467;28;20027;-76
2023/03/10 03:26:17;;;;;;;0.00;0.00;;;7.20;99.90;;;;;;5100435;28;20027;-76
2023/03/10 03:28:44;;;;;;;0.10;0.10;;;7.30;99.90;;;;;;5081842;28;20070;-76
2023/03/10 03:31:18;;;;;;;0.10;0.10;;;7.20;99.90;;;;;;5099898;28;20249;-76
2023/03/10 03:33:44;;;;;;;;;;;7.30;99.90;;;;;;5101732;28;20035;-76
2023/03/10 03:36:10;;;;;;;0.00;0.00;;;7.10;99.90;;;;;;5100098;28;19915;-75
2023/03/10 03:38:36;;;;;;;0.00;0.00;;;7.00;99.90;;;;;;5098498;28;20402;-76
2023/03/10 03:41:01;;;;;;;0.00;0.00;;;6.90;99.90;;;;;;5100335;28;20027;-76
2023/03/10 03:43:28;;;;;;;0.00;0.00;;;6.90;99.90;;;;;;5101216;28;20107;-77
2023/03/10 03:45:54;;;;;;;0.10;0.10;;;7.00;99.90;;;;;;5100273;28;20542;-76
2023/03/10 03:48:20;;;;;;;0.10;0.10;;;7.00;99.90;;;;;;5104831;28;20027;-76
2023/03/10 03:50:47;;;;;;;0.00;0.00;;;7.00;99.90;;;;;;5104588;28;20027;-76
2023/03/10 03:53:13;;;;;;;0.00;0.00;;;7.00;99.90;;;;;;5103847;28;20577;-77
2023/03/10 03:55:40;;;;;;;0.10;0.10;;;7.10;99.90;;;;;;5103969;28;20093;-76
2023/03/10 03:58:06;;;;;;;0.00;0.00;;;;;;;;;;5103299;28;20027;-77
2023/03/10 04:00:34;;;;;;;0.00;0.00;;;7.10;99.90;;;;;;5103829;28;20023;-77
2023/03/10 04:03:00;;;;;;;0.10;0.10;;;7.10;99.90;;;;;;5103930;28;20027;-77
2023/03/10 04:05:26;;;;;;;0.10;0.10;;;7.10;99.90;;;;;;5103613;28;20086;-77
2023/03/10 04:07:52;;;;;;;0.00;0.00;;;7.10;99.90;;;;;;5104297;28;20751;-76
2023/03/10 04:10:20;;;;;;;0.00;0.00;;;7.00;99.90;;;;;;5103772;28;20027;-77
2023/03/10 04:12:46;;;;;;;0.00;0.00;;;7.00;99.90;;;;;;5102908;28;20351;-77
2023/03/10 04:15:14;;;;;;;0.00;0.00;;;7.00;99.90;;;;;;5103076;28;20107;-77
2023/03/10 04:17:40;;;;;;;0.00;0.00;;;7.00;99.90;;;;;;5103495;28;20027;-77
2023/03/10 04:20:07;;;;;;;0.05;0.05;;;7.10;99.90;;;;;;5102964;28;20245;-77
2023/03/10 04:22:35;;;;;;;0.10;0.10;;;7.10;99.90;;;;;;5103120;28;20023;-77
2023/03/10 04:25:01;;;;;;;0.10;0.10;;;7.20;99.90;;;;;;5102801;28;20032;-77
2023/03/10 04:27:26;;;;;;;0.10;0.10;;;7.10;99.90;;;;;;5085186;28;20016;-76
2023/03/10 04:29:52;;;;;;;0.03;0.03;;;7.10;99.90;;;;;;5103469;28;20019;-76
2023/03/10 04:32:18;;;;;;;0.03;0.03;;;7.80;99.90;;;;;;5103612;28;20103;-76
2023/03/10 04:34:44;;;;;;;0.10;0.10;;;7.20;99.90;;;;;;5103061;28;20491;-77
2023/03/10 04:37:10;;;;;;;0.05;0.05;;;7.20;99.90;;;;;;5102759;28;20051;-77
2023/03/10 04:39:36;;;;;;;0.03;0.03;;;7.30;99.90;;;;;;5102841;28;20529;-76
2023/03/10 04:42:02;;;;;;;0.30;0.30;;;7.20;99.90;;;;;;5103009;28;20015;-77
2023/03/10 04:44:29;;;;;;;0.10;0.10;;;7.20;99.90;;;;;;5103649;28;20019;-77
2023/03/10 04:46:55;;;;;;;0.10;0.10;;;7.30;99.90;;;;;;5102563;28;20106;-77
2023/03/10 04:49:20;;;;;;;0.00;0.00;;;7.30;99.90;;;;;;5102575;28;20502;-76
2023/03/10 04:51:47;;;;;;;0.00;0.00;;;7.20;99.90;;;;;;5102832;28;20220;-77
2023/03/10 04:54:13;;;;;;;0.10;0.10;;;7.10;99.90;;;;;;5102044;28;20341;-77
2023/03/10 04:56:39;;;;;;;0.10;0.10;;;5.40;99.90;;;;;;5101604;28;20552;-77
2023/03/10 04:59:05;;;;;;;0.00;0.00;;;7.10;99.90;;;;;;5102441;28;20016;-77
2023/03/10 05:01:31;;;;;;;0.10;0.10;;;7.10;99.90;;;;;;5101913;28;20033;-77
2023/03/10 05:04:03;;;;;;;0.00;0.00;;;7.10;99.90;;;;;;5101650;28;20335;-77
2023/03/10 05:06:29;;;;;;;0.00;0.00;;;7.10;99.90;;;;;;5101813;28;20128;-77
2023/03/10 05:08:55;;;;;;;0.00;0.00;;;7.10;99.90;;;;;;5101629;28;20024;-77
2023/03/10 05:11:22;;;;;;;0.00;0.00;;;7.00;99.90;;;;;;5102096;28;20046;-76
2023/03/10 05:13:49;;;;;;;0.00;0.00;;;7.00;99.90;;;;;;5102075;28;20054;-77
2023/03/10 05:16:18;;;;;;;0.10;0.10;;;7.10;99.90;;;;;;5101601;28;20031;-77
2023/03/10 05:18:45;;;;;;;0.00;0.00;;;7.10;99.90;;;;;;5101216;28;20020;-76
2023/03/10 05:21:11;;;;;;;0.10;0.10;;;7.10;99.90;;;;;;5101745;28;20030;-76
2023/03/10 05:23:37;;;;;;;0.10;0.10;;;7.10;99.90;;;;;;5102077;28;20320;-77
2023/03/10 05:26:09;;;;;;;0.43;0.43;;;7.20;99.90;;;;;;5102018;28;20426;-76
2023/03/10 05:28:38;;;;;;;0.57;0.55;;;7.20;99.90;;;;;;5101737;28;20035;-77
2023/03/10 05:31:13;;;;;;;0.05;0.05;;;6.30;99.90;;;;;;5101749;28;20397;-77
2023/03/10 05:33:39;;;;;;;0.00;0.00;;;7.20;99.90;;;;;;5101048;28;20479;-76
2023/03/10 05:36:06;;;;;;;0.00;0.00;;;7.30;99.90;;;;;;5101353;28;20059;-76
2023/03/10 05:38:33;;;;;;;0.00;0.00;;;7.40;99.90;;;;;;5101191;28;20038;-76
2023/03/10 05:40:59;;;;;;;0.00;0.00;;;7.40;99.90;;;;;;5101991;28;20024;-77
2023/03/10 05:43:24;;;;;;;0.10;0.10;;;7.50;99.90;;;;;;5103652;28;20323;-77
2023/03/10 05:45:58;;;;;;;0.10;0.10;;;7.50;99.90;;;;;;5106365;28;20039;-77
2023/03/10 05:48:25;;;;;;;0.00;0.00;;;9.20;99.90;;;;;;5104173;28;20080;-77
2023/03/10 05:51:16;;;;;;;25.42;24.23;;;7.50;99.90;;;;;;5103786;28;20065;-77
2023/03/10 05:53:44;;;;;;;0.08;0.08;;;7.50;99.90;;;;;;5099712;28;20046;-77
2023/03/10 05:56:12;;;;;;;0.00;0.00;;;7.50;99.90;;;;;;5103247;28;20209;-77
2023/03/10 05:58:41;;;;;;;0.00;0.00;;;7.50;99.90;;;;;;5100286;28;20139;-77
2023/03/10 06:01:07;;;;;;;0.15;0.15;;;7.50;99.90;;;;;;5104595;28;20093;-76
2023/03/10 06:03:33;;;;;;;0.73;0.73;;;7.50;99.90;;;;;;5084363;28;20421;-77
2023/03/10 06:06:00;;;;;;;0.10;0.10;;;4.90;99.90;;;;;;5104830;28;20052;-77
2023/03/10 06:08:26;;;;;;;0.10;0.10;;;7.60;99.90;;;;;;5105169;28;20085;-77
2023/03/10 06:10:53;;;;;;;0.00;0.00;;;7.60;99.90;;;;;;5101764;28;20614;-77
2023/03/10 06:13:20;;;;;;;0.05;0.05;;;7.60;99.90;;;;;;5102674;28;20524;-77
2023/03/10 06:15:50;;;;;;;10.15;9.63;;;7.70;99.90;;;;;;5102961;28;20531;-77
2023/03/10 06:18:17;;;;;;;0.10;0.10;;;7.70;99.90;;;;;;5101775;28;20060;-77
2023/03/10 06:20:43;;;;;;;0.10;0.10;;;7.80;99.90;;;;;;5101787;28;20235;-77
2023/03/10 06:23:09;;;;;;;0.10;0.10;;;7.70;99.90;;;;;;5101105;28;20455;-77
2023/03/10 06:25:35;;;;;;;0.00;0.00;;;7.80;99.90;;;;;;5101199;28;20130;-76
2023/03/10 06:28:01;;;;;;;0.10;0.10;;;7.80;99.90;;;;;;5100706;28;20107;-76
2023/03/10 06:30:27;;;;;;;0.03;0.03;;;7.80;99.90;;;;;;5101778;28;20570;-77
2023/03/10 06:32:52;;;;;;;0.10;0.10;;;7.70;99.90;;;;;;5102107;28;20035;-76
2023/03/10 06:35:18;;;;;;;6.55;3.58;;;10.90;99.90;;;;;;5101505;28;20024;-76
2023/03/10 06:37:45;;;;;;;0.10;0.10;;;7.80;99.90;;;;;;5101202;28;20079;-77
2023/03/10 06:40:15;;;;;;;0.10;0.10;;;7.80;99.90;;;;;;5101035;28;20023;-77
2023/03/10 06:42:42;;;;;;;0.10;0.10;;;7.80;99.90;;;;;;5101621;28;20079;-77
2023/03/10 06:45:13;;;;;;;0.00;0.00;;;7.90;99.90;;;;;;5106213;28;20070;-77
2023/03/10 06:47:43;;;;;;;0.10;0.10;;;7.80;99.90;;;;;;5083661;28;20239;-77
2023/03/10 06:50:15;;;;;;;0.10;0.10;;;7.80;99.90;;;;;;5105462;28;20030;-77
2023/03/10 06:52:45;;;;;;;0.10;0.10;;;7.80;99.90;;;;;;5102954;28;20015;-77
2023/03/10 06:55:13;;;;;;;0.10;0.10;;;7.80;99.90;;;;;;5087284;28;20012;-77
2023/03/10 06:57:39;;;;;;;0.00;0.00;;;7.80;99.90;;;;;;5106879;28;20061;-77
2023/03/10 07:00:10;;;;;;;0.20;0.20;;;7.80;99.90;;;;;;5106301;28;20041;-77
2023/03/10 07:02:37;;;;;;;0.10;0.10;;;7.80;99.90;;;;;;5103033;28;20016;-76
2023/03/10 07:05:06;;;;;;;0.20;0.20;;;7.80;99.90;;;;;;5103847;28;20039;-77
2023/03/10 07:07:33;;;;;;;0.10;0.10;;;7.70;99.90;;;;;;5102620;28;20073;-77
2023/03/10 07:10:00;;;;;;;0.00;0.00;;;7.70;99.90;;;;;;5084067;28;20030;-77
2023/03/10 07:12:26;;;;;;;0.10;0.10;;;6.60;99.90;;;;;;5099770;28;20308;-77
2023/03/10 07:14:52;;;;;;;0.13;0.13;;;7.70;99.90;;;;;;5101518;28;20032;-76
2023/03/10 07:17:17;;;;;;;0.10;0.10;;;7.70;99.90;;;;;;5100483;28;20114;-77
2023/03/10 07:19:43;;;;;;;0.05;0.05;;;7.70;99.90;;;;;;5101001;28;20043;-77
2023/03/10 07:22:12;;;;;;;0.10;0.10;;;7.70;99.90;;;;;;5100332;28;20024;-77
2023/03/10 07:24:41;;;;;;;0.10;0.10;;;5.90;99.90;;;;;;5081381;28;20436;-77
2023/03/10 07:27:06;;;;;;;0.10;0.10;;;7.80;99.90;;;;;;5102126;28;20023;-77
2023/03/10 07:29:32;;;;;;;0.10;0.10;;;7.80;99.90;;;;;;5101695;28;20308;-77
2023/03/10 07:31:58;;;;;;;0.10;0.10;;;7.80;99.90;;;;;;5101597;28;20095;-77
2023/03/10 07:34:24;;;;;;;0.15;0.15;;;7.80;99.90;;;;;;5101030;28;20020;-77
2023/03/10 07:36:50;;;;;;;0.10;0.10;;;;;;;;;;5101078;28;20032;-77
2023/03/10 07:39:16;;;;;;;0.10;0.10;;;8.00;99.90;;;;;;5101302;28;20016;-77
2023/03/10 07:41:43;;;;;;;0.08;0.08;;;8.10;99.90;;;;;;5100431;28;20019;-77
2023/03/10 07:44:09;;;;;;;0.85;0.75;;;8.10;99.90;;;;;;5100503;28;20036;-78
2023/03/10 07:46:35;;;;;;;0.03;0.03;;;8.20;99.90;;;;;;5100475;28;20092;-76
2023/03/10 07:49:03;;;;;;;0.10;0.10;;;8.30;99.90;;;;;;5098731;28;20062;-77
2023/03/10 07:51:29;;;;;;;0.10;0.10;;;8.30;99.90;;;;;;5101362;28;20023;-77
2023/03/10 07:53:56;;;;;;;0.10;0.10;;;9.70;99.90;;;;;;5101944;28;20482;-77
2023/03/10 07:56:24;;;;;;;0.10;0.10;;;8.40;99.90;;;;;;5082518;28;20157;-77
2023/03/10 07:58:50;;;;;;;6.80;6.47;;;8.50;99.90;;;;;;5100749;28;20032;-77
2023/03/10 08:01:18;;;;;;;0.32;0.32;;;8.50;99.90;;;;;;5082896;28;20123;-77
2023/03/10 08:03:45;;;;;;;1.02;0.98;;;8.50;99.90;;;;;;5100761;28;20101;-77
2023/03/10 08:06:26;;;;;;;0.10;0.10;;;8.50;99.90;;;;;;5100516;28;20048;-77
2023/03/10 08:08:52;;;;;;;0.10;0.10;;;8.50;99.90;;;;;;5083101;28;20023;-77
2023/03/10 08:11:18;;;;;;;0.10;0.10;;;8.50;99.90;;;;;;5102200;28;20031;-77
2023/03/10 08:13:46;;;;;;;0.10;0.10;;;8.50;99.90;;;;;;5101515;28;20024;-77
2023/03/10 08:16:16;;;;;;;0.10;0.10;;;8.40;99.90;;;;;;5102593;28;20028;-77
2023/03/10 08:18:42;;;;;;;0.10;0.10;;;8.40;99.90;;;;;;5102441;28;20015;-77
2023/03/10 08:21:09;;;;;;;0.38;0.38;;;8.40;99.90;;;;;;5102970;28;20028;-77
2023/03/10 08:23:36;;;;;;;0.10;0.10;;;8.40;99.90;;;;;;5103987;28;20193;-77
2023/03/10 08:26:05;;;;;;;0.10;0.10;;;8.40;99.90;;;;;;5102460;28;20085;-77
2023/03/10 08:28:32;;;;;;;2.50;2.40;;;8.40;99.90;;;;;;5102839;28;20300;-77
2023/03/10 08:31:15;;;;;;;0.75;0.75;;;8.40;99.90;;;;;;5083652;28;20089;-77
2023/03/10 08:33:42;;;;;;;0.10;0.10;;;8.30;99.90;;;;;;5106615;28;20295;-77
2023/03/10 08:36:23;;;;;;;0.20;0.20;;;7.40;99.90;;;;;;5106731;28;20329;-77
2023/03/10 08:38:51;;;;;;;0.10;0.10;;;8.40;99.90;;;;;;5106550;28;20016;-76
2023/03/10 08:41:17;;;;;;;0.13;0.13;;;8.40;99.90;;;;;;5105717;28;20076;-77
2023/03/10 08:43:43;;;;;;;0.10;0.10;;;8.40;99.90;;;;;;5106331;28;20024;-77
2023/03/10 08:46:12;;;;;;;0.10;0.10;;;8.40;99.90;;;;;;5106974;28;20027;-76
2023/03/10 08:48:40;;;;;;;15.45;14.25;;;8.30;99.90;;;;;;5087381;28;20155;-76
2023/03/10 08:51:07;;;;;;;0.10;0.10;;;5.50;99.90;;;;;;5106914;28;20027;-76
2023/03/10 08:53:35;;;;;;;0.08;0.08;;;8.20;99.90;;;;;;5106092;28;20020;-77
2023/03/10 08:56:01;;;;;;;0.10;0.10;;;8.20;99.90;;;;;;5106037;28;20213;-77
2023/03/10 08:58:28;;;;;;;0.57;0.57;;;8.20;99.90;;;;;;5105639;28;20253;-77
2023/03/10 09:00:54;;;;;;;0.32;0.32;;;8.20;99.90;;;;;;5106728;28;20028;-76
2023/03/10 09:03:23;;;;;;;0.30;0.30;;;8.20;99.90;;;;;;5105627;28;20644;-77
2023/03/10 09:05:49;;;;;;;12.88;11.80;;;8.10;99.90;;;;;;5108696;28;20047;-77
2023/03/10 09:08:17;;;;;;;0.03;0.03;;;8.30;99.90;;;;;;5108004;28;20224;-77
2023/03/10 09:10:49;;;;;;;0.03;0.03;;;8.30;99.90;;;;;;5091648;28;20024;-77
2023/03/10 09:13:15;;;;;;;0.98;0.93;;;8.30;99.90;;;;;;5090101;28;20077;-77
2023/03/10 09:15:41;;;;;;;0.10;0.10;;;8.30;99.90;;;;;;5110682;28;20245;-77
2023/03/10 09:18:12;;;;;;;15.20;14.55;;;8.90;99.90;;;;;;5092068;28;20509;-76
2023/03/10 09:20:39;;;;;;;0.10;0.10;;;8.30;99.90;;;;;;5112340;28;20225;-77
2023/03/10 09:23:05;;;;;;;0.17;0.17;;;8.30;99.90;;;;;;5096692;28;20126;-76
2023/03/10 09:25:31;;;;;;;0.55;0.55;;;9.10;99.90;;;;;;5114655;28;20036;-78
2023/03/10 09:27:57;;;;;;;0.10;0.10;;;8.30;99.90;;;;;;5114068;28;20115;-77
2023/03/10 09:30:23;;;;;;;0.20;0.20;;;8.30;99.90;;;;;;5114102;28;20028;-77
2023/03/10 09:32:49;;;;;;;0.10;0.10;;;8.40;99.90;;;;;;5091061;28;20024;-77
2023/03/10 09:35:15;;;;;;;0.00;0.00;;;8.40;99.90;;;;;;5106086;28;20032;-77
2023/03/10 09:37:41;;;;;;;0.20;0.20;;;8.90;99.90;;;;;;5085579;28;20020;-77
2023/03/10 09:40:12;;;;;;;0.10;0.10;;;8.30;99.90;;;;;;5103621;28;20395;-76
2023/03/10 09:43:00;;;;;;;0.10;0.10;;;8.40;99.90;;;;;;5105667;28;20011;-77
2023/03/10 09:45:29;;;;;;;0.10;0.10;;;8.40;99.90;;;;;;5087256;28;20189;-77
2023/03/10 09:48:21;;;;;;;0.10;0.10;;;9.80;99.90;;;;;;5101883;28;20082;-78
2023/03/10 09:50:51;;;;;;;11.45;10.80;;;8.40;99.90;;;;;;5105015;28;20019;-77
2023/03/10 09:53:38;;;;;;;0.15;0.15;;;8.50;99.90;;;;;;5104278;28;20212;-77
2023/03/10 09:56:14;;;;;;;0.10;0.10;;;8.60;99.90;;;;;;5102865;28;20020;-77
2023/03/10 09:59:11;;;;;;;5.78;5.53;;;8.80;99.90;;;;;;5105072;28;20095;-77
2023/03/10 10:01:43;;;;;;;0.10;0.10;;;9.00;99.90;;;;;;5103744;28;20084;-77
2023/03/10 10:04:14;;;;;;;0.20;0.20;;;9.20;99.90;;;;;;5105269;28;20031;-76
2023/03/10 10:06:45;;;;;;;0.13;0.13;;;9.50;99.90;;;;;;5103233;28;20039;-77
2023/03/10 10:09:41;;;;;;;0.20;0.20;;;9.70;99.90;;;;;;5103358;28;20022;-78
2023/03/10 10:12:22;;;;;;;2.13;2.03;;;10.00;99.90;;;;;;5102958;28;20303;-77
2023/03/10 10:15:13;;;;;;;0.17;0.17;;;10.60;99.90;;;;;;5103754;28;20026;-77
2023/03/10 10:17:56;;;;;;;0.10;0.10;;;11.20;99.90;;;;;;5102116;28;20031;-77
2023/03/10 10:20:31;;;;;;;0.13;0.13;;;11.60;99.90;;;;;;5101438;28;20394;-77
2023/03/10 10:22:58;;;;;;;0.20;0.20;;;11.80;99.90;;;;;;5100319;28;20044;-78
2023/03/10 10:25:29;;;;;;;0.20;0.20;;;14.50;99.90;;;;;;5080904;28;20582;-87
2023/03/10 10:28:03;;;;;;;0.30;0.30;;;12.50;99.90;;;;;;5099022;28;20042;-79
2023/03/10 10:30:34;;;;;;;0.10;0.10;;;12.80;99.90;;;;;;5098899;28;20046;-77
2023/03/10 10:33:09;;;;;;;0.20;0.20;;;13.00;99.90;;;;;;5097435;28;20019;-79
2023/03/10 10:35:45;;;;;;;0.10;0.10;;;13.40;99.90;;;;;;5099255;28;20032;-78
2023/03/10 10:38:12;;;;;;;0.20;0.20;;;13.50;99.90;;;;;;5099004;28;20018;-80
2023/03/10 10:41:20;;;;;;;6.32;6.03;;;13.60;99.90;;;;;;5097290;28;20030;-81
2023/03/10 10:43:47;;;;;;;0.15;0.15;;;13.50;99.90;;;;;;5014740;28;20029;-78
2023/03/10 10:46:15;;;;;;;0.20;0.20;;;13.30;99.90;;;;;;5014661;28;20709;-77
2023/03/10 10:48:44;;;;;;;0.10;0.10;;;12.90;99.90;;;;;;4998528;28;20713;-78
2023/03/10 10:51:28;;;;;;;1.40;1.40;;;12.80;99.90;;;;;;5015471;28;20398;-78
2023/03/10 10:53:55;;;;;;;0.20;0.20;;;14.00;99.90;;;;;;5015148;28;20017;-78
2023/03/10 10:56:24;;;;;;;0.10;0.10;;;13.50;99.90;;;;;;5015463;28;20038;-78
2023/03/10 10:59:19;;;;;;;0.15;0.15;;;13.60;99.90;;;;;;4998570;28;20124;-77
2023/03/10 11:02:13;;;;;;;0.73;0.73;;;13.80;99.90;;;;;;5007782;28;20042;-83
2023/03/10 11:04:44;;;;;;;0.10;0.10;;;13.60;99.90;;;;;;5010625;28;20112;-78
2023/03/10 11:07:37;;;;;;;0.10;0.10;;;13.70;99.90;;;;;;4997566;28;20060;-78
2023/03/10 11:10:14;;;;;;;0.20;0.20;;;13.70;99.90;;;;;;4998676;28;20041;-75
2023/03/10 11:13:03;;;;;;;1.90;1.83;;;13.80;99.90;;;;;;4997466;28;20448;-77
2023/03/10 11:15:29;;;;;;;0.10;0.10;;;13.60;99.90;;;;;;5068337;28;20429;-76
2023/03/10 11:18:07;;;;;;;0.20;0.20;;;13.60;99.90;;;;;;5075861;28;20021;-76
2023/03/10 11:20:52;;;;;;;0.10;0.10;;;13.10;99.90;;;;;;5077160;28;20308;-76
2023/03/10 11:23:42;;;;;;;0.10;0.10;;;13.50;99.90;;;;;;5077151;28;20663;-78
2023/03/10 11:26:31;;;;;;;0.40;0.40;;;13.30;99.90;;;;;;5077265;28;20135;-76
2023/03/10 11:29:15;;;;;;;0.22;0.22;;;13.10;99.90;;;;;;5013999;28;20160;-77
2023/03/10 11:31:58;;;;;;;4.35;2.90;;;13.00;99.90;;;;;;5013830;28;20211;-76
2023/03/10 11:34:30;;;;;;;0.20;0.20;;;12.90;99.90;;;;;;5014598;28;20219;-77
2023/03/10 11:37:17;;;;;;;0.10;0.10;;;12.80;99.90;;;;;;5014175;28;20025;-77
2023/03/10 11:40:06;;;;;;;0.20;0.20;;;12.70;99.90;;;;;;4997641;28;20219;-77
2023/03/10 11:42:32;;;;;;;0.10;0.10;;;12.70;99.90;;;;;;5014024;28;20018;-76
2023/03/10 11:45:15;;;;;;;0.20;0.20;;;12.50;99.90;;;;;;5014173;28;20044;-77
2023/03/10 11:47:47;;;;;;;0.32;0.32;;;12.40;99.90;;;;;;5013697;28;20218;-76
2023/03/10 11:50:34;;;;;;;0.45;0.45;;;12.50;99.90;;;;;;4997398;28;20903;-77
2023/03/10 11:53:07;;;;;;;0.30;0.30;;;12.50;99.90;;;;;;5013759;28;20064;-79
2023/03/10 11:55:34;;;;;;;0.28;0.28;;;12.90;99.90;;;;;;5013928;28;20093;-87
2023/03/10 11:58:02;;;;;;;0.20;0.20;;;13.10;99.90;;;;;;5014029;28;20021;-84
2023/03/10 12:00:37;;;;;;;0.20;0.20;;;13.40;99.90;;;;;;5014059;28;20107;-76
2023/03/10 12:03:06;;;;;;;0.20;0.20;;;13.60;99.90;;;;;;4996876;28;20443;-76
2023/03/10 12:05:48;;;;;;;0.10;0.10;;;13.90;99.90;;;;;;5033372;28;20090;-79
2023/03/10 12:08:16;;;;;;;0.20;0.20;;;13.90;99.90;;;;;;5100323;28;20042;-76
2023/03/10 12:10:42;;;;;;;0.20;0.20;;;14.20;99.90;;;;;;5101520;28;20050;-77
2023/03/10 12:13:22;;;;;;;0.10;0.10;;;14.20;99.90;;;;;;5082829;28;20111;-79
2023/03/10 12:15:59;;;;;;;0.10;0.10;;;14.40;99.90;;;;;;5101136;28;20084;-75
2023/03/10 12:18:28;;;;;;;0.25;0.25;;;14.60;99.90;;;;;;5101149;28;20016;-78
2023/03/10 12:21:15;;;;;;;3.50;3.40;;;14.80;99.90;;;;;;5101235;28;20678;-76
2023/03/10 12:23:44;;;;;;;0.10;0.10;;;15.10;99.90;;;;;;5101101;28;20490;-78
2023/03/10 12:26:10;;;;;;;8.15;4.22;;;15.20;99.90;;;;;;5099605;28;20042;-77
2023/03/10 12:28:36;;;;;;;0.20;0.20;;;15.40;99.90;;;;;;5082559;28;20106;-77
2023/03/10 12:31:01;;;;;;;0.40;0.40;;;15.50;99.90;;;;;;5100616;28;20478;-80
2023/03/10 12:33:49;;;;;;;3.85;3.30;;;15.60;99.90;;;;;;5099594;28;20023;-76
2023/03/10 12:36:20;;;;;;;0.10;0.10;;;15.90;99.90;;;;;;5100960;28;20490;-76
2023/03/10 12:39:01;;;;;;;0.17;0.17;;;16.00;99.90;;;;;;5100678;28;20027;-78
2023/03/10 12:41:27;;;;;;;1.83;1.73;;;16.40;99.90;;;;;;5100689;28;20578;-76
2023/03/10 12:43:58;;;;;;;0.13;0.13;;;16.70;99.90;;;;;;5100463;28;20065;-78
2023/03/10 12:46:41;;;;;;;0.57;0.57;;;17.00;99.90;;;;;;5098953;28;20123;-77
2023/03/10 12:49:25;;;;;;;0.22;0.22;;;17.10;99.90;;;;;;5082016;28;20387;-76
2023/03/10 12:52:06;;;;;;;0.10;0.10;;;17.20;99.90;;;;;;5099550;28;20631;-79
2023/03/10 12:55:00;;;;;;;0.10;0.10;;;17.20;99.90;;;;;;5100796;28;20048;-76
2023/03/10 12:58:02;;;;;;;0.10;0.10;;;17.20;99.90;;;;;;5101310;28;20015;-76
2023/03/10 13:00:50;;;;;;;0.10;0.10;;;17.10;99.90;;;;;;5101173;28;20302;-83
2023/03/10 13:03:43;;;;;;;0.10;0.10;;;17.10;99.90;;;;;;5100890;28;20544;-76
2023/03/10 13:06:12;;;;;;;0.20;0.20;;;16.70;99.90;;;;;;5081862;28;20061;-76
2023/03/10 13:08:47;;;;;;;0.10;0.10;;;16.80;99.90;;;;;;5102253;28;20041;-76
2023/03/10 13:11:30;;;;;;;0.15;0.15;;;16.60;99.90;;;;;;5103813;28;20031;-80
2023/03/10 13:14:18;;;;;;;0.10;0.10;;;16.50;99.90;;;;;;5103307;28;20047;-75